Time;durP1;ratioP1;P1;durP2;ratioP2;P2;SDS_P1;SDS_P2;PMS_P1;PMS_P2;Temp;Humidity;BMP_temperature;BMP_pressure;BME280_temperature;BME280_humidity;BME280_pressure;Samples;Min_cycle;Max_cycle;Signal;HPM_P1;HPM_P2
2023/06/09 00:01:25;;;;;;;9.38;6.47;;;18.80;99.90;;;;;;5056221;28;20043;-57
2023/06/09 00:03:52;;;;;;;9.45;7.13;;;18.90;99.90;;;;;;5065531;28;20141;-57
2023/06/09 00:06:22;;;;;;;9.27;6.97;;;18.70;99.90;;;;;;5064348;28;20424;-57
2023/06/09 00:08:49;;;;;;;8.05;7.15;;;18.80;99.90;;;;;;5063118;28;20051;-58
2023/06/09 00:11:16;;;;;;;12.02;7.50;;;18.90;99.90;;;;;;5056385;28;20033;-57
2023/06/09 00:13:41;;;;;;;13.38;7.28;;;18.90;99.90;;;;;;5056767;28;20406;-57
2023/06/09 00:16:07;;;;;;;10.30;7.47;;;18.70;99.90;;;;;;5059325;28;20039;-58
2023/06/09 00:18:34;;;;;;;11.10;6.93;;;18.70;99.90;;;;;;5063220;28;20028;-57
2023/06/09 00:21:00;;;;;;;9.32;7.18;;;18.60;99.90;;;;;;5062133;28;20025;-57
2023/06/09 00:23:28;;;;;;;9.35;7.18;;;18.60;99.90;;;;;;5064152;28;20033;-57
2023/06/09 00:25:54;;;;;;;9.98;7.25;;;18.40;99.90;;;;;;5064038;28;20029;-57
2023/06/09 00:28:20;;;;;;;8.10;7.03;;;18.20;99.90;;;;;;5064908;28;20039;-58
2023/06/09 00:30:45;;;;;;;8.95;7.13;;;18.30;99.90;;;;;;5060471;28;20447;-58
2023/06/09 00:33:11;;;;;;;9.35;7.28;;;18.30;99.90;;;;;;5058482;28;20124;-57
2023/06/09 00:35:37;;;;;;;9.32;7.00;;;18.30;99.90;;;;;;5063555;28;20048;-58
2023/06/09 00:38:02;;;;;;;10.07;6.90;;;18.10;99.90;;;;;;5064701;28;20102;-58
2023/06/09 00:40:28;;;;;;;10.48;7.60;;;18.30;99.90;;;;;;5064525;28;20436;-58
2023/06/09 00:42:54;;;;;;;12.45;7.70;;;18.20;99.90;;;;;;5054999;28;20037;-58
2023/06/09 00:45:20;;;;;;;9.85;7.68;;;18.10;99.90;;;;;;5046042;28;20404;-58
2023/06/09 00:47:46;;;;;;;9.35;6.90;;;18.00;99.90;;;;;;5064780;28;20090;-57
2023/06/09 00:50:13;;;;;;;10.07;7.20;;;17.90;99.90;;;;;;5064750;28;20102;-58
2023/06/09 00:52:41;;;;;;;10.57;7.55;;;18.00;99.90;;;;;;5063850;28;20048;-58
2023/06/09 00:55:08;;;;;;;10.18;7.82;;;17.80;99.90;;;;;;5063826;28;20045;-58
2023/06/09 00:57:34;;;;;;;9.60;7.30;;;17.70;99.90;;;;;;5064271;28;20450;-57
2023/06/09 01:00:00;;;;;;;9.95;7.68;;;17.70;99.90;;;;;;5044944;28;20029;-58
2023/06/09 01:02:26;;;;;;;8.82;7.40;;;17.60;99.90;;;;;;5063090;28;20036;-58
2023/06/09 01:04:54;;;;;;;9.60;7.85;;;17.80;99.90;;;;;;5061485;28;20029;-58
2023/06/09 01:07:33;;;;;;;9.13;7.20;;;17.60;99.90;;;;;;5064310;28;20080;-58
2023/06/09 01:10:23;;;;;;;9.95;7.60;;;17.50;99.90;;;;;;5058353;28;20035;-57
2023/06/09 01:13:10;;;;;;;11.55;7.78;;;17.60;99.90;;;;;;5064180;28;20203;-58
2023/06/09 01:15:45;;;;;;;12.00;8.35;;;17.50;99.90;;;;;;5055428;28;20045;-57
2023/06/09 01:18:14;;;;;;;12.38;7.95;;;17.50;99.90;;;;;;5059606;28;20043;-58
2023/06/09 01:21:06;;;;;;;10.60;8.27;;;17.50;99.90;;;;;;5059801;28;20036;-57
2023/06/09 01:23:59;;;;;;;10.10;8.40;;;17.50;99.90;;;;;;5057304;28;20210;-57
2023/06/09 01:26:27;;;;;;;10.05;8.07;;;17.30;99.90;;;;;;5055836;28;20029;-58
2023/06/09 01:28:55;;;;;;;10.95;8.43;;;17.40;99.90;;;;;;5058417;28;20143;-57
2023/06/09 01:31:22;;;;;;;11.57;8.38;;;17.60;99.90;;;;;;5059214;28;20352;-57
2023/06/09 01:33:49;;;;;;;10.98;8.27;;;17.50;99.90;;;;;;5064192;28;20040;-57
2023/06/09 01:36:15;;;;;;;11.15;8.57;;;17.40;99.90;;;;;;5065833;28;20037;-58
2023/06/09 01:38:41;;;;;;;12.25;8.60;;;17.30;99.90;;;;;;5061964;28;20056;-57
2023/06/09 01:41:07;;;;;;;11.43;8.70;;;17.40;99.90;;;;;;5067570;28;20032;-58
2023/06/09 01:43:33;;;;;;;12.00;9.93;;;17.50;99.90;;;;;;5066265;28;20028;-58
2023/06/09 01:45:58;;;;;;;13.20;10.35;;;17.60;99.90;;;;;;5055338;28;20400;-57
2023/06/09 01:48:37;;;;;;;12.55;9.75;;;17.60;99.90;;;;;;5060945;28;20053;-58
2023/06/09 01:51:20;;;;;;;11.35;9.73;;;17.50;99.90;;;;;;5060243;28;20017;-58
2023/06/09 01:54:02;;;;;;;14.93;10.18;;;17.50;99.90;;;;;;5067825;28;20029;-58
2023/06/09 01:56:43;;;;;;;14.88;9.68;;;17.50;99.90;;;;;;5066901;28;20024;-58
2023/06/09 01:59:15;;;;;;;13.15;9.82;;;17.50;99.90;;;;;;5053665;28;20032;-58
2023/06/09 02:01:43;;;;;;;13.93;10.17;;;17.60;99.90;;;;;;5050098;28;20593;-58
2023/06/09 02:04:11;;;;;;;17.05;10.18;;;17.50;99.90;;;;;;5063728;28;20033;-58
2023/06/09 02:06:37;;;;;;;11.85;9.48;;;17.60;99.90;;;;;;5067448;28;20452;-57
2023/06/09 02:09:03;;;;;;;15.27;10.02;;;17.50;99.90;;;;;;5054424;28;20025;-58
2023/06/09 02:11:29;;;;;;;14.10;9.77;;;17.30;99.90;;;;;;5049812;28;20582;-57
2023/06/09 02:13:56;;;;;;;18.40;10.20;;;17.40;99.90;;;;;;5067627;28;20510;-57
2023/06/09 02:16:24;;;;;;;16.25;9.95;;;17.40;99.90;;;;;;5060722;28;20117;-58
2023/06/09 02:18:49;;;;;;;16.65;9.90;;;17.50;99.90;;;;;;5067074;28;20484;-57
2023/06/09 02:21:15;;;;;;;15.70;10.30;;;17.60;99.90;;;;;;5067048;28;20028;-58
2023/06/09 02:23:41;;;;;;;15.95;9.57;;;17.70;99.90;;;;;;5066553;28;20033;-58
2023/06/09 02:26:07;;;;;;;15.63;9.15;;;17.70;99.90;;;;;;5066582;28;20036;-58
2023/06/09 02:28:34;;;;;;;13.57;9.75;;;17.40;99.90;;;;;;5067384;28;20476;-58
2023/06/09 02:30:59;;;;;;;15.45;9.50;;;17.30;99.90;;;;;;5067326;28;20124;-57
2023/06/09 02:33:25;;;;;;;15.52;9.95;;;17.20;99.90;;;;;;5059677;28;20163;-58
2023/06/09 02:35:51;;;;;;;14.68;9.80;;;17.10;99.90;;;;;;5065840;28;20110;-57
2023/06/09 02:38:17;;;;;;;17.15;9.55;;;17.10;99.90;;;;;;5066339;28;20032;-58
2023/06/09 02:40:46;;;;;;;19.73;10.25;;;17.10;99.90;;;;;;5067141;28;20032;-58
2023/06/09 02:43:12;;;;;;;15.15;9.30;;;17.00;99.90;;;;;;5058987;28;20063;-57
2023/06/09 02:45:38;;;;;;;18.05;10.20;;;16.90;99.90;;;;;;5056559;28;20549;-58
2023/06/09 02:48:04;;;;;;;16.60;10.25;;;16.90;99.90;;;;;;5045993;28;20045;-58
2023/06/09 02:50:29;;;;;;;14.07;9.50;;;17.00;99.90;;;;;;5049790;28;20044;-57
2023/06/09 02:52:55;;;;;;;13.93;9.95;;;17.10;99.90;;;;;;5066763;28;20121;-57
2023/06/09 02:55:21;;;;;;;17.17;9.43;;;17.00;99.90;;;;;;5064587;28;20040;-57
2023/06/09 02:57:47;;;;;;;14.13;9.65;;;16.90;99.90;;;;;;5064444;28;20037;-57
2023/06/09 03:00:14;;;;;;;14.55;9.43;;;17.00;99.90;;;;;;5046110;28;20082;-57
2023/06/09 03:02:41;;;;;;;15.98;10.43;;;17.00;99.90;;;;;;5066366;28;20041;-57
2023/06/09 03:05:07;;;;;;;15.85;10.40;;;16.80;99.90;;;;;;5065730;28;20047;-58
2023/06/09 03:07:33;;;;;;;12.88;9.77;;;16.90;99.90;;;;;;5065806;28;20033;-58
2023/06/09 03:10:00;;;;;;;16.48;10.10;;;16.60;99.90;;;;;;5066415;28;20385;-58
2023/06/09 03:12:25;;;;;;;13.75;9.68;;;16.60;99.90;;;;;;5066080;28;20446;-58
2023/06/09 03:14:51;;;;;;;14.13;10.00;;;16.70;99.90;;;;;;5067082;28;20040;-57
2023/06/09 03:17:17;;;;;;;13.57;9.63;;;16.60;99.90;;;;;;5057417;28;20110;-58
2023/06/09 03:19:43;;;;;;;14.55;10.25;;;16.60;99.90;;;;;;5065806;28;20033;-57
2023/06/09 03:22:09;;;;;;;14.35;10.30;;;16.60;99.90;;;;;;5065991;28;20029;-58
2023/06/09 03:24:34;;;;;;;14.63;10.18;;;16.50;99.90;;;;;;5065281;28;20078;-57
2023/06/09 03:27:00;;;;;;;14.23;9.73;;;16.60;99.90;;;;;;5066062;28;20024;-57
2023/06/09 03:29:28;;;;;;;13.07;9.43;;;16.40;99.90;;;;;;5070795;28;20034;-57
2023/06/09 03:31:54;;;;;;;12.20;9.15;;;16.40;99.90;;;;;;5057337;28;20067;-58
2023/06/09 03:34:20;;;;;;;15.02;9.90;;;16.40;99.90;;;;;;5064122;28;20032;-57
2023/06/09 03:36:46;;;;;;;15.75;9.55;;;16.30;99.90;;;;;;5065548;28;20025;-57
2023/06/09 03:39:12;;;;;;;13.45;9.70;;;16.20;99.90;;;;;;5062820;28;20036;-58
2023/06/09 03:41:37;;;;;;;16.13;10.65;;;16.20;99.90;;;;;;5060257;28;20075;-57
2023/06/09 03:44:03;;;;;;;13.55;10.15;;;16.30;99.90;;;;;;5065964;28;20036;-58
2023/06/09 03:46:29;;;;;;;15.75;10.15;;;16.30;99.90;;;;;;5057388;28;20532;-57
2023/06/09 03:48:55;;;;;;;14.23;10.20;;;16.20;99.90;;;;;;5045668;28;20053;-57
2023/06/09 03:51:20;;;;;;;13.48;10.13;;;16.20;99.90;;;;;;5058716;28;20123;-57
2023/06/09 03:53:46;;;;;;;17.02;11.35;;;16.30;99.90;;;;;;5065492;28;20566;-56
2023/06/09 03:56:13;;;;;;;15.93;10.48;;;16.50;99.90;;;;;;5058613;28;20035;-57
2023/06/09 03:58:39;;;;;;;15.70;10.88;;;16.60;99.90;;;;;;5055588;28;20025;-57
2023/06/09 04:01:10;;;;;;;14.18;10.50;;;16.60;99.90;;;;;;5051983;28;20048;-57
2023/06/09 04:03:37;;;;;;;14.65;10.95;;;16.70;99.90;;;;;;5062962;28;20024;-57
2023/06/09 04:06:03;;;;;;;16.38;10.18;;;16.70;99.90;;;;;;5064743;28;20115;-58
2023/06/09 04:08:29;;;;;;;20.88;10.60;;;16.60;99.90;;;;;;5057269;28;20102;-57
2023/06/09 04:10:55;;;;;;;14.85;11.07;;;16.50;99.90;;;;;;5045447;28;20516;-58
2023/06/09 04:13:21;;;;;;;13.70;9.80;;;16.50;99.90;;;;;;5054050;28;20134;-57
2023/06/09 04:15:46;;;;;;;14.20;11.15;;;16.40;99.90;;;;;;5062591;28;20039;-57
2023/06/09 04:18:12;;;;;;;13.70;10.95;;;16.40;99.90;;;;;;5060315;28;20430;-58
2023/06/09 04:20:38;;;;;;;14.73;10.52;;;16.40;99.90;;;;;;5065530;28;20032;-57
2023/06/09 04:23:03;;;;;;;16.48;11.27;;;16.50;99.90;;;;;;5064811;28;20048;-57
2023/06/09 04:25:29;;;;;;;13.07;10.55;;;16.60;99.90;;;;;;5060668;28;20051;-57
2023/06/09 04:27:56;;;;;;;14.48;11.20;;;16.70;99.90;;;;;;5065183;28;20059;-57
2023/06/09 04:30:25;;;;;;;17.35;11.73;;;16.80;99.90;;;;;;5064756;28;20296;-57
2023/06/09 04:32:56;;;;;;;15.13;10.50;;;16.80;99.90;;;;;;5060654;28;20040;-58
2023/06/09 04:35:22;;;;;;;13.75;11.10;;;16.90;99.90;;;;;;5063436;28;21201;-57
2023/06/09 04:37:49;;;;;;;16.33;10.63;;;17.00;99.90;;;;;;5065179;28;20028;-57
2023/06/09 04:40:21;;;;;;;16.13;12.00;;;17.10;99.90;;;;;;5064431;28;20033;-57
2023/06/09 04:42:56;;;;;;;15.80;11.43;;;17.00;99.90;;;;;;5057938;28;20028;-57
2023/06/09 04:45:27;;;;;;;15.77;10.80;;;17.10;99.90;;;;;;5062568;28;20036;-58
2023/06/09 04:47:53;;;;;;;18.15;11.93;;;17.30;99.90;;;;;;5045486;28;20185;-57
2023/06/09 04:50:19;;;;;;;15.55;12.23;;;17.50;99.90;;;;;;5045946;28;20044;-58
2023/06/09 04:52:45;;;;;;;19.17;11.60;;;17.60;99.90;;;;;;5064863;28;20369;-58
2023/06/09 04:55:14;;;;;;;16.65;12.02;;;17.70;99.90;;;;;;5063970;28;20107;-58
2023/06/09 04:57:40;;;;;;;18.48;12.13;;;17.80;99.90;;;;;;5064618;28;20032;-57
2023/06/09 05:00:08;;;;;;;18.65;11.63;;;17.80;99.90;;;;;;5064334;28;20044;-58
2023/06/09 05:02:34;;;;;;;22.77;12.32;;;17.90;99.90;;;;;;5060263;28;20037;-58
2023/06/09 05:05:00;;;;;;;15.13;11.70;;;17.90;99.90;;;;;;5064075;28;20043;-57
2023/06/09 05:07:25;;;;;;;16.08;11.60;;;18.00;99.90;;;;;;5062104;28;20448;-57
2023/06/09 05:09:51;;;;;;;22.52;12.63;;;18.00;99.90;;;;;;5064707;28;20056;-57
2023/06/09 05:12:16;;;;;;;16.13;12.32;;;18.10;99.90;;;;;;5068564;28;20029;-57
2023/06/09 05:14:42;;;;;;;17.55;12.65;;;18.20;99.90;;;;;;5051523;28;20114;-57
2023/06/09 05:17:08;;;;;;;17.80;12.73;;;18.20;99.90;;;;;;5062841;28;20044;-57
2023/06/09 05:19:33;;;;;;;17.77;11.95;;;18.20;99.90;;;;;;5052337;28;20186;-57
2023/06/09 05:21:59;;;;;;;16.80;12.18;;;18.30;99.90;;;;;;5068682;28;20024;-57
2023/06/09 05:24:25;;;;;;;15.65;12.32;;;18.30;99.90;;;;;;5067879;28;20068;-57
2023/06/09 05:26:50;;;;;;;19.77;12.45;;;18.40;99.90;;;;;;5067768;28;20412;-57
2023/06/09 05:29:16;;;;;;;22.20;13.50;;;18.60;99.90;;;;;;5066543;28;20043;-57
2023/06/09 05:31:42;;;;;;;22.13;13.63;;;18.60;99.90;;;;;;5066120;28;20029;-57
2023/06/09 05:34:07;;;;;;;21.70;13.07;;;18.60;99.90;;;;;;5052170;28;20075;-57
2023/06/09 05:36:33;;;;;;;17.13;13.07;;;18.70;99.90;;;;;;5047790;28;20761;-57
2023/06/09 05:38:59;;;;;;;21.33;12.93;;;18.70;99.90;;;;;;5060571;28;20032;-57
2023/06/09 05:41:25;;;;;;;22.83;13.32;;;18.90;99.90;;;;;;5060597;28;20297;-57
2023/06/09 05:43:52;;;;;;;19.60;12.70;;;18.90;99.90;;;;;;5058051;28;20171;-58
2023/06/09 05:46:17;;;;;;;17.75;12.18;;;19.20;99.90;;;;;;5060667;28;20545;-57
2023/06/09 05:48:43;;;;;;;21.75;13.43;;;19.30;99.90;;;;;;5047466;28;20124;-57
2023/06/09 05:51:08;;;;;;;18.48;12.27;;;19.30;99.90;;;;;;5060581;28;20085;-57
2023/06/09 05:53:34;;;;;;;21.25;12.68;;;19.40;99.90;;;;;;5065205;28;20476;-57
2023/06/09 05:56:00;;;;;;;17.80;12.95;;;19.30;99.90;;;;;;5067445;28;20047;-57
2023/06/09 05:58:27;;;;;;;20.83;13.05;;;19.30;99.90;;;;;;5066965;28;20730;-57
2023/06/09 06:00:57;;;;;;;21.65;12.23;;;19.30;99.90;;;;;;5067613;28;20041;-58
2023/06/09 06:03:23;;;;;;;17.50;12.00;;;19.60;99.90;;;;;;5061195;28;20108;-57
2023/06/09 06:05:48;;;;;;;18.48;12.45;;;19.70;99.90;;;;;;5067091;28;20124;-58
2023/06/09 06:08:14;;;;;;;21.27;12.15;;;19.60;99.90;;;;;;5061570;28;20040;-58
2023/06/09 06:10:39;;;;;;;20.38;12.52;;;19.80;99.90;;;;;;5048127;28;20041;-57
2023/06/09 06:13:05;;;;;;;17.60;12.52;;;19.80;99.90;;;;;;5054141;28;20032;-57
2023/06/09 06:15:31;;;;;;;19.40;12.52;;;20.10;99.90;;;;;;5063676;28;20078;-57
2023/06/09 06:17:56;;;;;;;17.85;12.02;;;20.10;99.90;;;;;;5055151;28;20025;-57
2023/06/09 06:20:22;;;;;;;18.95;12.23;;;20.40;99.90;;;;;;5067305;28;20033;-58
2023/06/09 06:22:48;;;;;;;17.30;12.52;;;20.30;99.90;;;;;;5066802;28;20120;-57
2023/06/09 06:25:14;;;;;;;20.67;12.25;;;20.50;99.90;;;;;;5048329;28;20161;-57
2023/06/09 06:27:40;;;;;;;16.30;11.10;;;20.50;99.90;;;;;;5067172;28;20058;-58
2023/06/09 06:30:08;;;;;;;18.27;11.82;;;20.70;99.90;;;;;;5066738;28;20032;-57
2023/06/09 06:32:35;;;;;;;18.27;11.80;;;20.70;99.90;;;;;;5055893;28;20396;-57
2023/06/09 06:35:01;;;;;;;14.45;10.88;;;20.80;99.90;;;;;;5066480;28;20046;-57
2023/06/09 06:37:28;;;;;;;17.25;11.38;;;20.80;99.90;;;;;;5063581;28;20087;-57
2023/06/09 06:39:54;;;;;;;16.90;11.48;;;20.90;99.90;;;;;;5066559;28;20705;-57
2023/06/09 06:42:20;;;;;;;16.98;11.38;;;21.00;99.90;;;;;;5065778;28;20044;-57
2023/06/09 06:44:45;;;;;;;17.40;11.40;;;21.10;99.90;;;;;;5047062;28;20541;-57
2023/06/09 06:47:11;;;;;;;15.85;11.18;;;21.20;99.90;;;;;;5062883;28;20474;-57
2023/06/09 06:49:36;;;;;;;17.25;11.05;;;21.10;99.90;;;;;;5066527;28;20040;-57
2023/06/09 06:52:02;;;;;;;18.33;11.25;;;21.20;99.90;;;;;;5066262;28;20037;-58
2023/06/09 06:54:28;;;;;;;13.55;11.13;;;21.20;99.90;;;;;;5066709;28;20028;-57
2023/06/09 06:56:53;;;;;;;15.95;10.55;;;21.20;99.90;;;;;;5066294;28;20037;-57
2023/06/09 06:59:19;;;;;;;16.27;10.90;;;21.20;99.90;;;;;;5065514;28;20036;-58
2023/06/09 07:01:46;;;;;;;12.60;10.30;;;21.30;99.90;;;;;;5063298;28;20032;-57
2023/06/09 07:04:11;;;;;;;14.52;10.73;;;21.50;99.90;;;;;;5063502;28;20123;-58
2023/06/09 07:06:37;;;;;;;13.43;10.40;;;21.70;99.90;;;;;;5066274;28;20108;-58
2023/06/09 07:09:03;;;;;;;12.93;9.60;;;21.70;99.90;;;;;;5065319;28;20174;-58
2023/06/09 07:11:29;;;;;;;14.80;9.90;;;21.70;99.90;;;;;;5066506;28;20059;-57
2023/06/09 07:13:55;;;;;;;12.25;9.07;;;21.80;99.90;;;;;;5065933;28;20051;-57
2023/06/09 07:16:21;;;;;;;14.07;9.50;;;21.70;99.90;;;;;;5062329;28;20024;-57
2023/06/09 07:18:46;;;;;;;11.02;9.60;;;21.90;99.90;;;;;;5061129;28;20108;-57
2023/06/09 07:21:12;;;;;;;13.27;10.85;;;22.00;99.90;;;;;;5062861;28;20028;-58
2023/06/09 07:23:37;;;;;;;18.40;12.13;;;22.40;99.90;;;;;;5066382;28;20223;-57
2023/06/09 07:26:03;;;;;;;19.15;11.50;;;22.50;99.90;;;;;;5065305;28;20032;-57
2023/06/09 07:28:29;;;;;;;14.05;10.18;;;22.40;99.90;;;;;;5066809;28;20074;-57
2023/06/09 07:30:55;;;;;;;18.40;11.77;;;22.30;99.90;;;;;;5064411;28;20036;-57
2023/06/09 07:33:20;;;;;;;17.67;10.88;;;22.50;99.90;;;;;;5061066;28;20036;-57
2023/06/09 07:35:48;;;;;;;13.68;10.60;;;22.50;99.90;;;;;;5066780;28;20129;-57
2023/06/09 07:38:15;;;;;;;12.10;9.60;;;22.70;99.90;;;;;;5059514;28;20037;-57
2023/06/09 07:40:40;;;;;;;13.35;9.70;;;22.80;99.90;;;;;;5051202;28;20028;-57
2023/06/09 07:43:06;;;;;;;12.85;9.93;;;22.90;99.90;;;;;;5054663;28;20411;-57
2023/06/09 07:45:31;;;;;;;11.77;8.93;;;22.70;99.90;;;;;;5065470;28;20085;-57
2023/06/09 07:47:57;;;;;;;17.67;9.30;;;22.90;99.90;;;;;;5045741;28;20033;-57
2023/06/09 07:50:23;;;;;;;14.10;9.00;;;22.90;99.90;;;;;;5047496;28;20037;-57
2023/06/09 07:52:48;;;;;;;15.48;9.10;;;23.00;99.90;;;;;;5060399;28;20040;-57
2023/06/09 07:55:14;;;;;;;9.13;7.43;;;22.90;99.90;;;;;;5063257;28;20102;-57
2023/06/09 07:57:40;;;;;;;16.50;9.27;;;23.10;99.90;;;;;;5063842;28;20025;-58
2023/06/09 08:00:07;;;;;;;14.00;9.57;;;23.20;99.90;;;;;;5049475;28;20036;-57
2023/06/09 08:02:32;;;;;;;13.23;8.98;;;22.90;99.90;;;;;;5053934;28;20029;-58
2023/06/09 08:04:59;;;;;;;13.38;8.98;;;22.90;99.90;;;;;;5061280;28;20055;-57
2023/06/09 08:07:24;;;;;;;13.65;9.20;;;23.20;99.90;;;;;;5064817;28;20028;-57
2023/06/09 08:09:50;;;;;;;14.63;8.82;;;23.40;99.90;;;;;;5045898;28;20079;-57
2023/06/09 08:12:16;;;;;;;14.18;9.43;;;23.40;99.90;;;;;;5044756;28;20051;-57
2023/06/09 08:14:42;;;;;;;10.90;7.50;;;23.50;99.90;;;;;;5049679;28;20048;-57
2023/06/09 08:17:07;;;;;;;15.55;8.50;;;23.60;99.90;;;;;;5054153;28;20497;-57
2023/06/09 08:19:33;;;;;;;14.38;8.68;;;23.80;99.90;;;;;;5065050;28;20082;-57
2023/06/09 08:21:58;;;;;;;10.77;7.43;;;23.80;99.90;;;;;;5065300;28;20044;-58
2023/06/09 08:24:24;;;;;;;11.13;7.00;;;24.00;99.90;;;;;;5064867;28;20112;-57
2023/06/09 08:26:51;;;;;;;9.50;6.70;;;24.20;99.90;;;;;;5060749;28;20029;-58
2023/06/09 08:29:18;;;;;;;10.55;6.57;;;24.20;99.90;;;;;;5064930;28;20043;-57
2023/06/09 08:31:44;;;;;;;9.50;6.78;;;24.30;99.90;;;;;;5063723;28;20463;-58
2023/06/09 08:34:09;;;;;;;8.43;6.38;;;24.50;99.90;;;;;;5061687;28;20041;-57
2023/06/09 08:36:35;;;;;;;8.98;6.13;;;24.50;99.90;;;;;;5067479;28;20399;-58
2023/06/09 08:39:01;;;;;;;9.18;6.20;;;24.70;99.90;;;;;;5060192;28;20076;-58
2023/06/09 08:41:28;;;;;;;8.77;6.45;;;24.70;99.90;;;;;;5044992;28;20115;-58
2023/06/09 08:43:55;;;;;;;16.50;8.50;;;24.80;99.90;;;;;;5063285;28;20049;-57
2023/06/09 08:46:21;;;;;;;12.13;6.38;;;24.90;99.90;;;;;;5060208;28;20086;-58
2023/06/09 08:48:56;;;;;;;7.57;6.13;;;24.80;99.90;;;;;;5063840;28;20031;-58
2023/06/09 08:51:22;;;;;;;7.85;6.22;;;24.90;99.90;;;;;;5062950;28;20036;-58
2023/06/09 08:53:52;;;;;;;12.43;6.30;;;24.90;99.90;;;;;;5064735;28;20029;-57
2023/06/09 08:56:21;;;;;;;9.43;6.78;;;24.90;99.90;;;;;;5064116;28;20052;-58
2023/06/09 08:58:47;;;;;;;10.30;6.93;;;25.10;99.90;;;;;;5063498;28;20745;-58
2023/06/09 09:01:14;;;;;;;10.40;6.35;;;25.20;99.90;;;;;;5065049;28;20060;-58
2023/06/09 09:03:40;;;;;;;10.05;6.10;;;25.20;99.90;;;;;;5063981;28;20020;-58
2023/06/09 09:06:06;;;;;;;8.98;6.07;;;25.10;99.90;;;;;;5059166;28;20393;-57
2023/06/09 09:08:32;;;;;;;13.10;6.43;;;25.30;99.90;;;;;;5064353;28;20028;-58
2023/06/09 09:10:57;;;;;;;9.75;6.38;;;25.40;99.90;;;;;;5061098;28;20093;-58
2023/06/09 09:13:30;;;;;;;9.68;6.40;;;25.50;99.90;;;;;;5059670;28;20243;-58
2023/06/09 09:15:58;;;;;;;10.83;6.20;;;25.60;99.90;;;;;;5060557;28;20586;-58
2023/06/09 09:18:23;;;;;;;12.80;6.78;;;25.50;99.90;;;;;;5058711;28;20112;-57
2023/06/09 09:20:49;;;;;;;11.60;6.00;;;25.70;99.90;;;;;;5063897;28;20131;-58
2023/06/09 09:23:14;;;;;;;10.60;6.35;;;25.60;99.90;;;;;;5064574;28;20036;-58
2023/06/09 09:25:41;;;;;;;10.98;5.82;;;25.50;99.90;;;;;;5063455;28;20029;-58
2023/06/09 09:28:08;;;;;;;7.18;5.30;;;25.70;99.90;;;;;;5063676;28;20036;-59
2023/06/09 09:30:40;;;;;;;9.52;5.93;;;25.80;99.90;;;;;;5064499;28;20066;-57
2023/06/09 09:33:10;;;;;;;8.02;5.72;;;25.80;99.90;;;;;;5062867;28;20102;-58
2023/06/09 09:35:38;;;;;;;9.73;6.32;;;25.80;99.90;;;;;;5049757;28;20037;-58
2023/06/09 09:38:04;;;;;;;7.80;6.38;;;26.00;99.90;;;;;;5059450;28;20456;-57
2023/06/09 09:40:29;;;;;;;9.80;6.80;;;25.90;99.90;;;;;;5044380;28;20049;-58
2023/06/09 09:43:00;;;;;;;8.05;6.97;;;26.00;99.90;;;;;;5052933;28;20036;-58
2023/06/09 09:45:27;;;;;;;9.25;6.55;;;25.80;99.90;;;;;;5063553;28;20381;-58
2023/06/09 09:47:52;;;;;;;10.65;6.50;;;25.70;99.90;;;;;;5045052;28;20076;-58
2023/06/09 09:50:24;;;;;;;8.77;6.40;;;25.90;99.90;;;;;;5046600;28;20070;-58
2023/06/09 09:52:51;;;;;;;8.40;6.60;;;26.10;99.90;;;;;;5055183;28;20297;-59
2023/06/09 09:55:17;;;;;;;8.27;6.82;;;26.10;99.90;;;;;;5062393;28;20645;-57
2023/06/09 09:57:44;;;;;;;7.95;6.45;;;26.30;99.90;;;;;;5063697;28;20086;-58
2023/06/09 10:00:12;;;;;;;8.63;6.50;;;26.20;99.90;;;;;;5047534;28;20451;-58
2023/06/09 10:02:42;;;;;;;9.02;6.40;;;26.20;99.90;;;;;;5053562;28;20128;-58
2023/06/09 10:05:10;;;;;;;8.77;5.75;;;26.30;99.90;;;;;;5066516;28;20040;-58
2023/06/09 10:07:39;;;;;;;6.35;5.50;;;26.40;99.90;;;;;;5064627;28;20116;-58
2023/06/09 10:10:08;;;;;;;9.70;6.13;;;26.60;99.90;;;;;;5066831;28;20032;-58
2023/06/09 10:12:36;;;;;;;8.15;6.13;;;26.60;99.90;;;;;;5067152;28;20028;-59
2023/06/09 10:15:03;;;;;;;8.65;6.07;;;26.60;99.90;;;;;;5066629;28;20040;-57
2023/06/09 10:17:29;;;;;;;10.32;5.57;;;26.60;99.90;;;;;;5060599;28;20033;-58
2023/06/09 10:19:56;;;;;;;7.70;5.40;;;26.20;99.90;;;;;;5066917;28;20028;-57
2023/06/09 10:22:23;;;;;;;7.82;5.05;;;26.40;99.90;;;;;;5066874;28;20052;-58
2023/06/09 10:24:49;;;;;;;5.72;4.53;;;26.50;99.90;;;;;;5066973;28;20036;-58
2023/06/09 10:27:14;;;;;;;8.93;5.13;;;26.70;99.90;;;;;;5057420;28;20047;-57
2023/06/09 10:29:40;;;;;;;5.00;4.40;;;26.80;99.90;;;;;;5064967;28;20450;-58
2023/06/09 10:32:09;;;;;;;5.65;4.38;;;26.80;99.90;;;;;;5062034;28;20041;-58
2023/06/09 10:34:37;;;;;;;6.53;4.90;;;26.90;99.90;;;;;;5066554;28;20037;-58
2023/06/09 10:37:04;;;;;;;4.95;4.45;;;26.90;99.90;;;;;;5066408;28;20240;-58
2023/06/09 10:39:56;;;;;;;7.15;4.60;;;27.00;98.70;;;;;;5063447;28;20028;-58
2023/06/09 10:42:49;;;;;;;4.93;4.40;;;27.10;99.90;;;;;;5065359;28;20131;-58
2023/06/09 10:45:18;;;;;;;5.43;4.60;;;27.10;99.90;;;;;;5051997;28;20033;-58
2023/06/09 10:47:46;;;;;;;5.25;4.60;;;27.10;98.10;;;;;;5066457;28;20462;-57
2023/06/09 10:50:21;;;;;;;6.05;4.90;;;26.80;96.70;;;;;;5054516;28;20140;-57
2023/06/09 10:52:47;;;;;;;8.18;4.30;;;26.90;98.30;;;;;;5066974;28;20032;-57
2023/06/09 10:55:15;;;;;;;5.97;4.22;;;26.90;99.70;;;;;;5065783;28;20553;-58
2023/06/09 10:57:42;;;;;;;6.80;4.15;;;27.10;97.10;;;;;;5064884;28;20318;-58
2023/06/09 11:00:12;;;;;;;4.88;4.18;;;27.20;99.80;;;;;;5051075;28;20534;-59
2023/06/09 11:03:08;;;;;;;6.80;4.07;;;27.40;94.70;;;;;;5062316;28;20082;-57
2023/06/09 11:05:42;;;;;;;6.28;3.83;;;27.30;99.30;;;;;;5042283;28;20036;-58
2023/06/09 11:08:07;;;;;;;9.95;4.07;;;27.40;93.10;;;;;;5061593;28;20033;-58
2023/06/09 11:10:37;;;;;;;6.22;3.90;;;27.40;95.20;;;;;;5063026;28;20033;-58
2023/06/09 11:13:39;;;;;;;4.68;3.70;;;27.50;98.40;;;;;;5063511;28;20056;-60
2023/06/09 11:16:05;;;;;;;4.18;3.78;;;27.60;94.40;;;;;;5060894;28;20049;-58
2023/06/09 11:18:31;;;;;;;6.03;4.10;;;27.30;91.20;;;;;;5064307;28;20025;-58
2023/06/09 11:21:11;;;;;;;6.45;4.07;;;27.30;91.60;;;;;;5066298;28;20043;-58
2023/06/09 11:23:56;;;;;;;6.95;3.88;;;27.40;90.40;;;;;;5063295;28;20476;-58
2023/06/09 11:26:23;;;;;;;5.45;3.28;;;27.40;89.30;;;;;;5064280;28;20933;-58
2023/06/09 11:28:49;;;;;;;4.68;3.80;;;27.30;82.50;;;;;;5065726;28;20047;-57
2023/06/09 11:31:15;;;;;;;6.95;3.75;;;27.40;83.40;;;;;;5060702;28;20503;-58
2023/06/09 11:33:46;;;;;;;4.20;3.53;;;27.40;79.00;;;;;;5063060;28;20032;-57
2023/06/09 11:36:19;;;;;;;5.50;4.05;;;27.40;92.10;;;;;;5059133;28;20083;-58
2023/06/09 11:38:46;;;;;;;;;;;27.60;89.50;;;;;;5055671;28;20033;-58
2023/06/09 11:41:13;;;;;;;7.18;4.07;;;27.50;83.80;;;;;;5045755;28;20435;-58
2023/06/09 11:43:38;;;;;;;4.25;3.70;;;27.60;85.80;;;;;;5061529;28;20043;-58
2023/06/09 11:46:04;;;;;;;6.15;3.95;;;27.50;83.80;;;;;;5064117;28;20496;-58
2023/06/09 11:48:30;;;;;;;5.07;3.72;;;27.50;81.20;;;;;;5046993;28;20392;-58
2023/06/09 11:50:56;;;;;;;4.78;3.65;;;27.50;85.10;;;;;;5052024;28;20035;-58
2023/06/09 11:53:24;;;;;;;4.35;3.50;;;27.70;85.10;;;;;;5065113;28;20036;-58
2023/06/09 11:56:00;;;;;;;6.15;3.92;;;27.70;90.20;;;;;;5053592;28;20044;-58
2023/06/09 11:58:26;;;;;;;5.13;3.90;;;27.90;85.50;;;;;;5061150;28;20029;-58
2023/06/09 12:00:52;;;;;;;8.35;4.05;;;27.80;83.90;;;;;;5065832;28;20412;-58
2023/06/09 12:03:19;;;;;;;4.05;3.65;;;27.80;84.00;;;;;;5060511;28;20592;-58
2023/06/09 12:05:50;;;;;;;5.45;4.20;;;27.60;79.30;;;;;;5063677;28;20111;-58
2023/06/09 12:08:15;;;;;;;6.22;3.92;;;27.60;90.20;;;;;;5058686;28;20536;-58
2023/06/09 12:10:41;;;;;;;4.88;3.78;;;27.60;89.90;;;;;;5054951;28;20035;-58
2023/06/09 12:13:06;;;;;;;5.20;3.85;;;27.80;92.60;;;;;;5064867;28;20041;-59
2023/06/09 12:15:32;;;;;;;5.85;3.63;;;27.90;86.80;;;;;;5064507;28;20032;-58
2023/06/09 12:18:01;;;;;;;4.70;3.80;;;28.10;84.80;;;;;;5058429;28;20747;-58
2023/06/09 12:20:35;;;;;;;4.55;3.75;;;28.10;87.60;;;;;;5063927;28;20036;-58
2023/06/09 12:23:13;;;;;;;4.95;3.88;;;28.20;88.80;;;;;;5065455;28;20569;-58
2023/06/09 12:25:41;;;;;;;4.03;3.60;;;28.20;89.00;;;;;;5064943;28;20025;-58
2023/06/09 12:28:17;;;;;;;6.75;3.80;;;28.20;78.60;;;;;;5061154;28;20040;-58
2023/06/09 12:30:50;;;;;;;5.07;3.70;;;28.10;90.50;;;;;;5049929;28;20032;-58
2023/06/09 12:33:26;;;;;;;6.18;3.80;;;28.20;81.40;;;;;;5065219;28;20669;-58
2023/06/09 12:35:54;;;;;;;6.13;4.00;;;28.20;75.50;;;;;;5067543;28;20128;-57
2023/06/09 12:38:22;;;;;;;4.22;3.47;;;28.30;76.70;;;;;;5066757;28;20032;-58
2023/06/09 12:40:53;;;;;;;3.63;3.33;;;28.20;75.50;;;;;;5067902;28;20028;-58